Time;durP1;ratioP1;P1;durP2;ratioP2;P2;SDS_P1;SDS_P2;PMS_P1;PMS_P2;Temp;Humidity;BMP_temperature;BMP_pressure;BME280_temperature;BME280_humidity;BME280_pressure;Samples;Min_cycle;Max_cycle;Signal;HPM_P1;HPM_P2
2023/01/31 00:02:04;;;;;;;36.97;5.22;;;;;;;;;;5052344;28;20033;-74
2023/01/31 00:04:30;;;;;;;36.92;4.20;;;;;;;;;;5052274;28;20033;-73
2023/01/31 00:06:56;;;;;;;28.48;4.10;;;;;;;;;;5051696;28;20020;-71
2023/01/31 00:09:22;;;;;;;31.95;4.32;;;;;;;;;;5052314;28;20032;-72
2023/01/31 00:11:48;;;;;;;30.88;4.07;;;;;;;;;;5052169;28;20096;-72
2023/01/31 00:14:17;;;;;;;35.13;4.10;;;;;;;;;;5050304;28;20105;-73
2023/01/31 00:16:43;;;;;;;26.40;3.47;;;;;;;;;;5051654;28;20415;-72
2023/01/31 00:19:09;;;;;;;27.30;4.10;;;;;;;;;;5052049;28;20032;-73
2023/01/31 00:21:35;;;;;;;31.23;3.60;;;;;;;;;;5052110;28;20036;-73
2023/01/31 00:24:04;;;;;;;22.10;2.97;;;;;;;;;;5052039;28;20029;-72
2023/01/31 00:26:31;;;;;;;36.75;4.47;;;;;;;;;;5051649;28;20370;-72
2023/01/31 00:28:58;;;;;;;33.30;3.35;;;;;;;;;;5051905;28;20029;-72
2023/01/31 00:31:24;;;;;;;25.05;3.60;;;;;;;;;;5052548;28;20413;-74
2023/01/31 00:33:51;;;;;;;43.92;5.22;;;;;;;;;;5056755;28;20024;-73
2023/01/31 00:36:19;;;;;;;34.67;3.85;;;;;;;;;;5058596;28;20537;-72
2023/01/31 00:38:47;;;;;;;39.10;4.72;;;;;;;;;;5062035;28;20036;-73
2023/01/31 00:41:13;;;;;;;36.25;3.55;;;;;;;;;;5057366;28;20048;-72
2023/01/31 00:43:39;;;;;;;38.88;4.70;;;;;;;;;;5055978;28;20044;-73
2023/01/31 00:46:05;;;;;;;30.65;4.68;;;;;;;;;;5050134;28;20025;-74
2023/01/31 00:48:31;;;;;;;43.60;4.97;;;;;;;;;;5051978;28;20477;-73
2023/01/31 00:50:57;;;;;;;36.50;4.20;;;;;;;;;;5051797;28;20375;-73
2023/01/31 00:53:24;;;;;;;30.35;4.07;;;;;;;;;;5051768;28;20079;-75
2023/01/31 00:55:51;;;;;;;34.20;4.00;;;;;;;;;;5051241;28;20091;-72
2023/01/31 00:58:17;;;;;;;24.67;3.45;;;;;;;;;;5051933;28;20553;-73
2023/01/31 01:00:43;;;;;;;34.53;3.45;;;;;;;;;;5048925;28;20053;-73
2023/01/31 01:03:09;;;;;;;26.98;3.60;;;;;;;;;;5049308;28;20079;-72
2023/01/31 01:05:35;;;;;;;31.27;3.20;;;;;;;;;;5050133;28;20025;-72
2023/01/31 01:08:01;;;;;;;30.17;4.35;;;;;;;;;;5051406;28;20032;-72
2023/01/31 01:10:27;;;;;;;19.90;2.78;;;;;;;;;;5051640;28;20021;-72
2023/01/31 01:12:53;;;;;;;22.85;3.65;;;;;;;;;;5051691;28;20096;-72
2023/01/31 01:15:19;;;;;;;22.45;2.80;;;;;;;;;;5051515;28;20398;-73
2023/01/31 01:17:45;;;;;;;20.67;2.63;;;;;;;;;;5051673;28;20025;-72
2023/01/31 01:20:11;;;;;;;32.80;2.92;;;;;;;;;;5051936;28;20551;-72
2023/01/31 01:22:37;;;;;;;23.90;2.78;;;;;;;;;;5052005;28;20028;-72
2023/01/31 01:25:04;;;;;;;27.98;2.53;;;;;;;;;;5051509;28;20059;-73
2023/01/31 01:27:30;;;;;;;30.23;3.33;;;;;;;;;;5053734;28;20105;-72
2023/01/31 01:29:57;;;;;;;23.55;3.47;;;;;;;;;;5055265;28;20028;-72
2023/01/31 01:32:23;;;;;;;17.75;2.40;;;;;;;;;;5055282;28;20397;-73
2023/01/31 01:34:48;;;;;;;20.67;3.22;;;;;;;;;;5055253;28;20033;-73
2023/01/31 01:37:18;;;;;;;31.50;3.80;;;;;;;;;;5054661;28;20479;-71
2023/01/31 01:39:51;;;;;;;23.90;4.32;;;;;;;;;;5055312;28;20028;-72
2023/01/31 01:42:19;;;;;;;32.60;3.78;;;;;;;;;;5055212;28;20553;-73
2023/01/31 01:44:45;;;;;;;32.60;3.85;;;;;;;;;;5055779;28;20029;-73
2023/01/31 01:47:31;;;;;;;51.85;5.40;;;;;;;;;;5055565;28;20032;-73
2023/01/31 01:50:00;;;;;;;38.15;4.88;;;;;;;;;;5055231;28;20029;-73
2023/01/31 01:52:27;;;;;;;37.30;4.03;;;;;;;;;;5055663;28;20449;-73
2023/01/31 01:54:55;;;;;;;41.35;4.85;;;;;;;;;;5055674;28;20029;-73
2023/01/31 01:57:25;;;;;;;38.88;5.15;;;;;;;;;;5055050;28;20071;-73
2023/01/31 02:00:00;;;;;;;41.42;4.75;;;;;;;;;;5055500;28;20053;-73
2023/01/31 02:02:27;;;;;;;49.50;5.88;;;;;;;;;;5053946;28;20067;-73
2023/01/31 02:04:53;;;;;;;38.67;4.55;;;;;;;;;;5054662;28;20037;-72
2023/01/31 02:07:19;;;;;;;53.00;5.88;;;;;;;;;;5054111;28;20017;-74
2023/01/31 02:09:48;;;;;;;57.40;6.47;;;;;;;;;;5054596;28;20021;-72
2023/01/31 02:12:14;;;;;;;49.63;5.43;;;;;;;;;;5054475;28;20036;-72
2023/01/31 02:14:41;;;;;;;56.72;5.20;;;;;;;;;;5054323;28;20033;-72
2023/01/31 02:17:11;;;;;;;46.92;5.47;;;;;;;;;;5053827;28;20032;-72
2023/01/31 02:19:45;;;;;;;40.83;4.88;;;;;;;;;;5055208;28;20521;-72
2023/01/31 02:22:14;;;;;;;39.25;4.78;;;;;;;;;;5054333;28;20487;-73
2023/01/31 02:24:59;;;;;;;51.80;5.38;;;;;;;;;;5054201;28;20489;-72
2023/01/31 02:27:48;;;;;;;49.35;5.32;;;;;;;;;;5053650;28;20029;-72
2023/01/31 02:30:33;;;;;;;41.10;5.45;;;;;;;;;;5054505;28;20501;-73
2023/01/31 02:33:10;;;;;;;43.25;5.30;;;;;;;;;;5054413;28;20025;-73
2023/01/31 02:35:49;;;;;;;47.53;5.35;;;;;;;;;;5053787;28;20390;-72
2023/01/31 02:38:22;;;;;;;40.47;4.47;;;;;;;;;;5053993;28;20017;-73
2023/01/31 02:40:54;;;;;;;40.80;4.22;;;;;;;;;;5054594;28;20033;-73
2023/01/31 02:43:20;;;;;;;30.10;3.45;;;;;;;;;;5054412;28;20036;-74
2023/01/31 02:45:46;;;;;;;43.40;4.93;;;;;;;;;;5053272;28;20039;-72
2023/01/31 02:48:38;;;;;;;37.80;4.57;;;;;;;;;;5053794;28;20349;-72
2023/01/31 02:51:14;;;;;;;39.22;4.20;;;;;;;;;;5052684;28;20120;-73
2023/01/31 02:53:47;;;;;;;36.90;4.60;;;;;;;;;;5051328;28;20021;-74
2023/01/31 02:56:33;;;;;;;27.00;3.83;;;;;;;;;;5052916;28;20057;-74
2023/01/31 02:59:14;;;;;;;29.83;3.92;;;;;;;;;;5053622;28;20104;-73
2023/01/31 03:01:46;;;;;;;36.70;5.32;;;;;;;;;;5053451;28;20079;-71
2023/01/31 03:04:12;;;;;;;26.00;3.95;;;;;;;;;;5053310;28;20029;-73
2023/01/31 03:06:58;;;;;;;26.33;3.25;;;;;;;;;;5052946;28;20044;-72
2023/01/31 03:09:35;;;;;;;31.15;4.45;;;;;;;;;;5053469;28;20017;-73
2023/01/31 03:12:07;;;;;;;26.70;2.88;;;;;;;;;;5053367;28;20135;-73
2023/01/31 03:14:38;;;;;;;30.95;3.53;;;;;;;;;;5053223;28;20029;-73
2023/01/31 03:19:54;;;;;;;26.13;3.72;;;;;;;;;;5053073;28;20040;-72
2023/01/31 03:22:25;;;;;;;38.40;4.03;;;;;;;;;;5053188;28;20025;-73
2023/01/31 03:24:51;;;;;;;29.10;5.22;;;;;;;;;;5053351;28;20025;-72
2023/01/31 03:27:18;;;;;;;32.20;4.93;;;;;;;;;;5053065;28;20078;-73
2023/01/31 03:29:44;;;;;;;30.52;3.17;;;;;;;;;;5053658;28;20029;-73
2023/01/31 03:32:15;;;;;;;31.27;3.33;;;;;;;;;;5053073;28;20025;-72
2023/01/31 03:34:41;;;;;;;36.53;3.47;;;;;;;;;;5053854;28;20036;-73
2023/01/31 03:37:07;;;;;;;28.35;3.55;;;;;;;;;;5053353;28;20021;-73
2023/01/31 03:39:38;;;;;;;29.65;4.07;;;;;;;;;;5052797;28;20474;-73
2023/01/31 03:42:06;;;;;;;33.88;3.67;;;;;;;;;;5052555;28;20435;-74
2023/01/31 03:44:46;;;;;;;31.90;3.90;;;;;;;;;;5052285;28;20025;-73
2023/01/31 03:47:32;;;;;;;33.60;4.13;;;;;;;;;;5051981;28;20492;-73
2023/01/31 03:49:59;;;;;;;37.00;5.22;;;;;;;;;;5051889;28;20029;-71
2023/01/31 03:52:28;;;;;;;44.05;5.07;;;;;;;;;;5052534;28;20499;-73
2023/01/31 03:54:59;;;;;;;33.35;4.97;;;;;;;;;;5052318;28;20024;-74
2023/01/31 03:57:33;;;;;;;36.15;4.28;;;;;;;;;;5052132;28;20032;-75
2023/01/31 03:59:59;;;;;;;41.70;4.85;;;;;;;;;;5052578;28;20234;-74
2023/01/31 04:02:28;;;;;;;38.55;4.93;;;;;;;;;;5052604;28;20056;-73
2023/01/31 04:04:58;;;;;;;41.53;4.55;;;;;;;;;;5052420;28;20027;-75
2023/01/31 04:07:24;;;;;;;45.85;5.82;;;;;;;;;;5051900;28;20025;-74
2023/01/31 04:09:50;;;;;;;50.83;5.13;;;;;;;;;;5052142;28;20025;-74
2023/01/31 04:12:16;;;;;;;45.85;5.35;;;;;;;;;;5052261;28;20029;-74
2023/01/31 04:14:42;;;;;;;52.33;5.60;;;;;;;;;;5056536;28;20505;-73
2023/01/31 04:17:08;;;;;;;50.50;5.45;;;;;;;;;;5056322;28;20025;-75
2023/01/31 04:19:34;;;;;;;49.78;6.05;;;;;;;;;;5055321;28;20036;-73
2023/01/31 04:22:00;;;;;;;38.45;5.25;;;;;;;;;;5052940;28;20033;-73
2023/01/31 04:24:26;;;;;;;33.33;4.65;;;;;;;;;;5054027;28;20024;-76
2023/01/31 04:26:52;;;;;;;51.40;5.40;;;;;;;;;;5052469;28;20028;-73
2023/01/31 04:29:18;;;;;;;52.47;5.65;;;;;;;;;;5051952;28;20485;-74
2023/01/31 04:31:44;;;;;;;47.17;5.38;;;;;;;;;;5051851;28;20438;-72
2023/01/31 04:34:09;;;;;;;54.65;5.38;;;;;;;;;;5051762;28;20021;-72
2023/01/31 04:36:35;;;;;;;42.22;5.00;;;;;;;;;;5051318;28;20035;-73
2023/01/31 04:39:01;;;;;;;51.72;5.68;;;;;;;;;;5052010;28;20486;-72
2023/01/31 04:41:27;;;;;;;43.10;5.90;;;;;;;;;;5048951;28;20498;-74
2023/01/31 04:43:53;;;;;;;48.78;5.90;;;;;;;;;;5048995;28;20025;-74
2023/01/31 04:46:19;;;;;;;39.03;4.90;;;;;;;;;;5051648;28;20502;-72
2023/01/31 04:48:45;;;;;;;48.08;6.03;;;;;;;;;;5054240;28;20505;-73
2023/01/31 04:51:11;;;;;;;45.85;5.82;;;;;;;;;;5049492;28;20048;-76
2023/01/31 04:53:37;;;;;;;42.63;5.25;;;;;;;;;;5049869;28;20540;-74
2023/01/31 04:56:04;;;;;;;53.58;6.00;;;;;;;;;;5054453;28;20033;-74
2023/01/31 04:58:30;;;;;;;56.10;6.63;;;;;;;;;;5056647;28;20017;-74
2023/01/31 05:00:56;;;;;;;46.10;4.97;;;;;;;;;;5053964;28;20024;-75
2023/01/31 05:03:23;;;;;;;52.17;6.20;;;;;;;;;;5055604;28;20024;-75
2023/01/31 05:05:49;;;;;;;50.33;5.75;;;;;;;;;;5052181;28;20043;-76
2023/01/31 05:08:15;;;;;;;49.17;6.18;;;;;;;;;;5051034;28;20047;-74
2023/01/31 05:10:41;;;;;;;45.67;5.20;;;;;;;;;;5055822;28;20025;-75
2023/01/31 05:13:08;;;;;;;42.65;4.90;;;;;;;;;;5056034;28;20113;-73
2023/01/31 05:15:34;;;;;;;29.48;3.88;;;;;;;;;;5055711;28;20033;-72
2023/01/31 05:18:03;;;;;;;49.75;5.13;;;;;;;;;;5055706;28;20132;-74
2023/01/31 05:20:30;;;;;;;47.20;5.18;;;;;;;;;;5055807;28;20363;-73
2023/01/31 05:22:56;;;;;;;48.85;6.18;;;;;;;;;;5054162;28;20047;-73
2023/01/31 05:25:22;;;;;;;33.35;5.22;;;;;;;;;;5054969;28;20021;-73
2023/01/31 05:27:48;;;;;;;50.50;5.97;;;;;;;;;;5055022;28;20032;-72
2023/01/31 05:30:14;;;;;;;48.08;5.78;;;;;;;;;;5055378;28;20115;-73
2023/01/31 05:32:41;;;;;;;55.67;6.15;;;;;;;;;;5055195;28;20037;-72
2023/01/31 05:35:07;;;;;;;41.70;5.20;;;;;;;;;;5055520;28;20029;-74
2023/01/31 05:37:33;;;;;;;59.97;5.45;;;;;;;;;;5055278;28;20425;-74
2023/01/31 05:39:58;;;;;;;37.15;5.03;;;;;;;;;;5056208;28;20028;-76
2023/01/31 05:42:24;;;;;;;55.58;5.55;;;;;;;;;;5053201;28;20475;-74
2023/01/31 05:44:50;;;;;;;53.92;5.10;;;;;;;;;;5050600;28;20379;-74
2023/01/31 05:47:16;;;;;;;52.13;4.55;;;;;;;;;;5053640;28;20029;-75
2023/01/31 05:49:42;;;;;;;54.65;5.07;;;;;;;;;;5056601;28;20025;-74
2023/01/31 05:52:08;;;;;;;53.35;5.15;;;;;;;;;;5051092;28;20021;-76
2023/01/31 05:54:34;;;;;;;38.20;5.15;;;;;;;;;;5055683;28;20035;-73
2023/01/31 05:57:00;;;;;;;57.22;5.18;;;;;;;;;;5054119;28;20028;-73
2023/01/31 05:59:29;;;;;;;58.30;6.22;;;;;;;;;;5057866;28;20428;-75
2023/01/31 06:01:55;;;;;;;50.72;6.43;;;;;;;;;;5057467;28;20021;-73
2023/01/31 06:04:21;;;;;;;59.20;6.65;;;;;;;;;;5056039;28;20025;-73
2023/01/31 06:06:47;;;;;;;52.47;6.30;;;;;;;;;;5056847;28;20405;-74
2023/01/31 06:09:13;;;;;;;47.30;5.35;;;;;;;;;;5058366;28;20021;-75
2023/01/31 06:11:39;;;;;;;56.65;5.78;;;;;;;;;;5059756;28;20035;-77
2023/01/31 06:14:05;;;;;;;50.15;5.57;;;;;;;;;;5064614;28;20029;-74
2023/01/31 06:16:31;;;;;;;59.05;7.30;;;;;;;;;;5057697;28;20578;-74
2023/01/31 06:18:57;;;;;;;41.30;5.45;;;;;;;;;;5058977;28;20048;-73
2023/01/31 06:21:23;;;;;;;64.13;7.05;;;;;;;;;;5054600;28;20104;-75
2023/01/31 06:23:49;;;;;;;59.80;7.07;;;;;;;;;;5048803;28;20057;-73
2023/01/31 06:26:15;;;;;;;67.97;6.25;;;;;;;;;;5048378;28;20082;-74
2023/01/31 06:28:41;;;;;;;59.53;6.18;;;;;;;;;;5054627;28;20100;-75
2023/01/31 06:31:08;;;;;;;64.63;8.38;;;;;;;;;;5057047;28;20048;-75
2023/01/31 06:33:34;;;;;;;66.72;6.55;;;;;;;;;;5056784;28;20473;-75
2023/01/31 06:36:00;;;;;;;48.25;7.25;;;;;;;;;;5054272;28;20033;-74
2023/01/31 06:38:26;;;;;;;61.95;5.72;;;;;;;;;;5053207;28;20036;-75
2023/01/31 06:40:52;;;;;;;49.83;5.57;;;;;;;;;;5053862;28;20090;-73
2023/01/31 06:43:18;;;;;;;45.90;5.53;;;;;;;;;;5046616;28;20453;-75
2023/01/31 06:45:44;;;;;;;64.22;6.40;;;;;;;;;;5053076;28;20497;-75
2023/01/31 06:48:10;;;;;;;48.65;5.20;;;;;;;;;;5053740;28;20364;-75
2023/01/31 06:50:36;;;;;;;53.90;5.60;;;;;;;;;;5053516;28;20100;-75
2023/01/31 06:53:02;;;;;;;49.97;5.85;;;;;;;;;;5053674;28;20037;-75
2023/01/31 06:55:28;;;;;;;49.95;4.75;;;;;;;;;;5053161;28;20028;-75
2023/01/31 06:57:54;;;;;;;54.33;7.18;;;;;;;;;;5054155;28;20021;-75
2023/01/31 07:00:21;;;;;;;55.22;6.57;;;;;;;;;;5053321;28;20383;-75
2023/01/31 07:02:47;;;;;;;50.40;5.25;;;;;;;;;;5053241;28;20494;-75
2023/01/31 07:05:14;;;;;;;50.03;6.20;;;;;;;;;;5053563;28;20032;-77
2023/01/31 07:07:40;;;;;;;45.17;5.85;;;;;;;;;;5053080;28;20036;-75
2023/01/31 07:10:06;;;;;;;46.08;6.45;;;;;;;;;;5046451;28;20038;-77
2023/01/31 07:12:32;;;;;;;47.53;5.43;;;;;;;;;;5045533;28;20099;-73
2023/01/31 07:14:58;;;;;;;55.67;5.75;;;;;;;;;;5053167;28;20069;-76
2023/01/31 07:17:24;;;;;;;49.90;5.85;;;;;;;;;;5052746;28;20025;-72
2023/01/31 07:19:50;;;;;;;52.38;5.43;;;;;;;;;;5049309;28;20029;-73
2023/01/31 07:22:16;;;;;;;54.25;5.78;;;;;;;;;;5053052;28;20039;-74
2023/01/31 07:24:42;;;;;;;59.83;5.78;;;;;;;;;;5051785;28;20107;-74
2023/01/31 07:27:08;;;;;;;39.20;4.90;;;;;;;;;;5051804;28;20450;-74
2023/01/31 07:29:34;;;;;;;46.42;5.82;;;;;;;;;;5050239;28;20031;-73
2023/01/31 07:32:00;;;;;;;35.63;5.65;;;;;;;;;;5052330;28;20021;-73
2023/01/31 07:34:26;;;;;;;44.65;5.57;;;;;;;;;;5050855;28;20044;-72
2023/01/31 07:36:52;;;;;;;41.45;6.47;;;;;;;;;;5051731;28;20033;-75
2023/01/31 07:39:18;;;;;;;39.42;6.30;;;;;;;;;;5052654;28;20117;-75
2023/01/31 07:41:44;;;;;;;47.30;6.80;;;;;;;;;;5052218;28;20060;-72
2023/01/31 07:44:10;;;;;;;54.53;7.45;;;;;;;;;;5052268;28;20537;-72
2023/01/31 07:46:36;;;;;;;45.67;6.35;;;;;;;;;;5051809;28;20020;-73
2023/01/31 07:49:02;;;;;;;45.35;7.05;;;;;;;;;;5052600;28;20078;-73
2023/01/31 07:51:27;;;;;;;57.05;7.80;;;;;;;;;;5052200;28;20026;-73
2023/01/31 07:53:53;;;;;;;50.58;7.25;;;;;;;;;;5052338;28;20064;-74
2023/01/31 07:56:20;;;;;;;57.90;7.60;;;;;;;;;;5051887;28;20025;-73
2023/01/31 07:58:47;;;;;;;55.30;8.05;;;;;;;;;;5052656;28;20092;-74
2023/01/31 08:04:02;;;;;;;43.85;9.00;;;;;;;;;;5052952;28;20536;-73
2023/01/31 08:06:29;;;;;;;58.35;8.40;;;;;;;;;;5051425;28;20056;-73
2023/01/31 08:08:55;;;;;;;66.68;9.02;;;;;;;;;;5051900;28;20082;-74
2023/01/31 08:11:21;;;;;;;68.47;9.00;;;;;;;;;;5052477;28;20166;-72
2023/01/31 08:13:47;;;;;;;67.00;9.60;;;;;;;;;;5052102;28;20481;-73
2023/01/31 08:16:13;;;;;;;53.58;8.07;;;;;;;;;;5051989;28;20339;-73
2023/01/31 08:18:39;;;;;;;57.25;8.23;;;;;;;;;;5052603;28;20025;-74
2023/01/31 08:21:06;;;;;;;54.20;8.18;;;;;;;;;;5052719;28;20100;-73
2023/01/31 08:23:33;;;;;;;49.60;8.73;;;;;;;;;;5052131;28;20025;-73
2023/01/31 08:25:59;;;;;;;60.05;8.95;;;;;;;;;;5051486;28;20036;-76
2023/01/31 08:28:25;;;;;;;57.05;7.63;;;;;;;;;;5052393;28;20025;-74
2023/01/31 08:30:51;;;;;;;55.80;8.52;;;;;;;;;;5052162;28;20032;-75
2023/01/31 08:33:17;;;;;;;62.85;9.38;;;;;;;;;;5052411;28;20045;-75
2023/01/31 08:35:43;;;;;;;47.10;8.68;;;;;;;;;;5051350;28;20025;-74
2023/01/31 08:38:09;;;;;;;60.10;8.85;;;;;;;;;;5052400;28;20155;-74
2023/01/31 08:40:35;;;;;;;57.47;9.02;;;;;;;;;;5052409;28;20431;-73
2023/01/31 08:43:01;;;;;;;54.45;9.50;;;;;;;;;;5052611;28;20487;-74
2023/01/31 08:45:28;;;;;;;57.83;8.57;;;;;;;;;;5051949;28;20055;-72
2023/01/31 08:47:58;;;;;;;42.90;8.63;;;;;;;;;;5051707;28;20021;-73
2023/01/31 08:50:25;;;;;;;55.00;9.13;;;;;;;;;;5051645;28;20094;-73
2023/01/31 08:52:52;;;;;;;47.47;7.70;;;;;;;;;;5051564;28;20021;-72
2023/01/31 08:55:18;;;;;;;47.00;7.65;;;;;;;;;;5051708;28;20029;-74
2023/01/31 08:57:44;;;;;;;59.78;9.52;;;;;;;;;;5052431;28;20082;-73
2023/01/31 09:00:11;;;;;;;52.00;8.32;;;;;;;;;;5053201;28;20028;-73
2023/01/31 09:02:37;;;;;;;58.17;8.50;;;;;;;;;;5052368;28;20029;-73
2023/01/31 09:05:04;;;;;;;46.40;8.57;;;;;;;;;;5050506;28;20029;-73
2023/01/31 09:07:29;;;;;;;58.35;9.07;;;;;;;;;;5051053;28;20036;-74
2023/01/31 09:09:55;;;;;;;60.03;8.88;;;;;;;;;;5051980;28;20017;-72
2023/01/31 09:12:21;;;;;;;48.47;8.52;;;;;;;;;;5051826;28;20485;-72
2023/01/31 09:14:50;;;;;;;44.13;8.05;;;;;;;;;;5051719;28;20029;-72
2023/01/31 09:17:15;;;;;;;59.05;8.75;;;;;;;;;;5051184;28;20451;-73
2023/01/31 09:19:41;;;;;;;56.17;9.95;;;;;;;;;;5052595;28;20111;-74
2023/01/31 09:22:07;;;;;;;58.28;8.95;;;;;;;;;;5052049;28;20069;-74
2023/01/31 09:24:33;;;;;;;51.42;9.38;;;;;;;;;;5051848;28;20059;-73
2023/01/31 09:26:59;;;;;;;49.58;8.27;;;;;;;;;;5050923;28;20021;-74
2023/01/31 09:29:27;;;;;;;50.03;11.70;;;;;;;;;;5051531;28;20025;-73
2023/01/31 09:31:53;;;;;;;41.22;8.10;;;;;;;;;;5049744;28;20021;-74
2023/01/31 09:34:21;;;;;;;62.08;8.35;;;;;;;;;;5051507;28;20474;-74
2023/01/31 09:36:47;;;;;;;56.00;9.80;;;;;;;;;;5050867;28;20463;-74
2023/01/31 09:39:13;;;;;;;51.83;7.95;;;;;;;;;;5051579;28;20029;-74
2023/01/31 09:41:53;;;;;;;52.65;8.23;;;;;;;;;;5051439;28;20082;-74
2023/01/31 09:44:25;;;;;;;40.80;7.88;;;;;;;;;;5051222;28;20029;-73
2023/01/31 09:46:56;;;;;;;35.25;7.90;;;;;;;;;;5050968;28;20057;-73
2023/01/31 09:49:24;;;;;;;46.90;8.07;;;;;;;;;;5055201;28;20397;-73
2023/01/31 09:51:54;;;;;;;40.33;7.82;;;;;;;;;;5055325;28;20459;-73
2023/01/31 09:54:22;;;;;;;43.88;8.25;;;;;;;;;;5055309;28;20027;-75
2023/01/31 09:56:54;;;;;;;41.20;8.65;;;;;;;;;;5054552;28;20434;-73
2023/01/31 09:59:22;;;;;;;54.65;8.57;;;;;;;;;;5054886;28;20501;-73
2023/01/31 10:01:48;;;;;;;44.75;9.00;;;;;;;;;;5054703;28;20056;-73
2023/01/31 10:04:14;;;;;;;36.70;8.18;;;;;;;;;;5054461;28;20060;-73
2023/01/31 10:06:45;;;;;;;42.17;9.02;;;;;;;;;;5054241;28;20056;-74
2023/01/31 10:09:19;;;;;;;37.20;7.80;;;;;;;;;;5054819;28;20409;-74
2023/01/31 10:11:50;;;;;;;37.15;8.70;;;;;;;;;;5054524;28;20028;-73
2023/01/31 10:14:16;;;;;;;41.85;8.30;;;;;;;;;;5055025;28;20052;-74
2023/01/31 10:16:44;;;;;;;41.83;7.85;;;;;;;;;;5054218;28;20589;-72
2023/01/31 10:19:31;;;;;;;31.30;8.25;;;;;;;;;;5054969;28;20371;-72
2023/01/31 10:22:00;;;;;;;38.90;7.57;;;;;;;;;;5054409;28;20643;-74
2023/01/31 10:24:31;;;;;;;34.58;8.25;;;;;;;;;;5054434;28;20029;-73
2023/01/31 10:27:03;;;;;;;31.60;7.50;;;;;;;;;;5054053;28;20027;-74
2023/01/31 10:29:44;;;;;;;25.23;7.97;;;;;;;;;;5054148;28;20025;-72
2023/01/31 10:32:23;;;;;;;28.15;8.30;;;;;;;;;;5054052;28;20032;-78
2023/01/31 10:34:58;;;;;;;30.52;8.43;;;;;;;;;;5054905;28;20375;-75
2023/01/31 10:37:32;;;;;;;37.88;8.77;;;;;;;;;;5057017;28;20086;-74
2023/01/31 10:40:00;;;;;;;31.90;8.13;;;;;;;;;;5054669;28;20029;-77
2023/01/31 10:42:32;;;;;;;34.00;9.10;;;;;;;;;;5054223;28;20091;-75
2023/01/31 10:45:01;;;;;;;45.72;9.02;;;;;;;;;;5053973;28;20533;-75
2023/01/31 10:47:34;;;;;;;36.95;8.85;;;;;;;;;;5053643;28;20452;-74
2023/01/31 10:50:00;;;;;;;41.45;8.82;;;;;;;;;;5055020;28;20059;-74
2023/01/31 10:52:27;;;;;;;32.55;10.43;;;;;;;;;;5055008;28;20081;-75
2023/01/31 10:54:59;;;;;;;30.58;8.00;;;;;;;;;;5054951;28;20107;-73
2023/01/31 10:57:25;;;;;;;27.30;8.43;;;;;;;;;;5053782;28;20163;-73
2023/01/31 10:59:51;;;;;;;32.40;8.60;;;;;;;;;;5053931;28;20072;-75
2023/01/31 11:02:22;;;;;;;32.72;8.95;;;;;;;;;;5053912;28;20061;-75
2023/01/31 11:04:50;;;;;;;29.65;9.40;;;;;;;;;;5053587;28;20478;-71
2023/01/31 11:07:16;;;;;;;41.90;8.38;;;;;;;;;;5053314;28;20100;-73
2023/01/31 11:09:50;;;;;;;28.80;8.15;;;;;;;;;;5053857;28;20548;-72
2023/01/31 11:12:16;;;;;;;34.90;8.55;;;;;;;;;;5053715;28;20076;-71
2023/01/31 11:14:42;;;;;;;36.22;8.38;;;;;;;;;;5053634;28;20051;-74
2023/01/31 11:17:14;;;;;;;34.20;8.25;;;;;;;;;;5053334;28;20021;-74
2023/01/31 11:19:44;;;;;;;39.88;9.05;;;;;;;;;;5053334;28;20052;-73
2023/01/31 11:22:20;;;;;;;25.45;7.10;;;;;;;;;;5053129;28;20466;-74
2023/01/31 11:24:47;;;;;;;38.78;8.75;;;;;;;;;;5053329;28;20465;-74
2023/01/31 11:27:20;;;;;;;28.77;7.70;;;;;;;;;;5052904;28;20025;-75
2023/01/31 11:29:48;;;;;;;37.90;8.20;;;;;;;;;;5053383;28;20498;-73
2023/01/31 11:32:22;;;;;;;28.08;7.80;;;;;;;;;;5052846;28;20057;-74
2023/01/31 11:34:59;;;;;;;33.63;7.90;;;;;;;;;;5053285;28;20033;-73
2023/01/31 11:37:27;;;;;;;23.90;6.70;;;;;;;;;;5052414;28;20025;-74
2023/01/31 11:39:57;;;;;;;30.65;6.97;;;;;;;;;;5053030;28;20066;-71
2023/01/31 11:42:23;;;;;;;26.10;7.20;;;;;;;;;;5052940;28;20028;-73
2023/01/31 11:44:55;;;;;;;26.27;5.88;;;;;;;;;;5053040;28;20116;-72
2023/01/31 11:47:28;;;;;;;27.10;6.25;;;;;;;;;;5052347;28;20025;-74
2023/01/31 11:49:54;;;;;;;23.27;7.25;;;;;;;;;;5052712;28;20025;-76
2023/01/31 11:52:21;;;;;;;24.85;5.95;;;;;;;;;;5052822;28;20036;-75
2023/01/31 11:54:51;;;;;;;20.65;5.97;;;;;;;;;;5052442;28;20032;-74
2023/01/31 11:57:21;;;;;;;18.48;5.15;;;;;;;;;;5052142;28;20390;-74
2023/01/31 11:59:49;;;;;;;21.23;5.55;;;;;;;;;;5052683;28;20025;-74
2023/01/31 12:02:41;;;;;;;16.23;4.65;;;;;;;;;;5052793;28;20033;-75
2023/01/31 12:05:12;;;;;;;18.17;5.05;;;;;;;;;;5051236;28;20041;-72
2023/01/31 12:07:43;;;;;;;21.38;4.90;;;;;;;;;;5051759;28;20021;-76
2023/01/31 12:10:30;;;;;;;18.48;3.88;;;;;;;;;;5051884;28;20386;-75
2023/01/31 12:13:10;;;;;;;13.40;3.85;;;;;;;;;;5052137;28;20095;-74
2023/01/31 12:15:45;;;;;;;16.98;4.72;;;;;;;;;;5051901;28;20041;-72
2023/01/31 12:18:11;;;;;;;12.70;3.92;;;;;;;;;;5052424;28;20036;-73
2023/01/31 12:20:53;;;;;;;20.55;3.72;;;;;;;;;;5052252;28;20091;-73
2023/01/31 12:23:19;;;;;;;12.80;3.60;;;;;;;;;;5052451;28;20033;-74
2023/01/31 12:26:04;;;;;;;12.63;3.55;;;;;;;;;;5051598;28;20032;-73
2023/01/31 12:28:30;;;;;;;;;;;;;;;;;;5052606;28;20457;-74
2023/01/31 12:31:06;;;;;;;11.65;3.03;;;;;;;;;;5051797;28;19915;-75
2023/01/31 12:33:43;;;;;;;9.57;3.22;;;;;;;;;;5052860;28;20020;-74
2023/01/31 12:36:28;;;;;;;11.25;3.22;;;;;;;;;;5051664;28;20024;-76
2023/01/31 12:39:03;;;;;;;17.00;4.35;;;;;;;;;;5054707;28;20053;-75
2023/01/31 12:41:36;;;;;;;7.30;2.10;;;;;;;;;;5055005;28;20060;-79
2023/01/31 12:44:15;;;;;;;10.27;2.70;;;;;;;;;;5054383;28;20044;-73
2023/01/31 12:46:50;;;;;;;6.57;2.20;;;;;;;;;;5058761;28;20078;-73
2023/01/31 12:49:16;;;;;;;9.88;2.35;;;;;;;;;;5057279;28;20087;-76
2023/01/31 12:51:48;;;;;;;7.80;1.95;;;;;;;;;;5052275;28;20437;-73
2023/01/31 12:54:32;;;;;;;9.35;2.00;;;;;;;;;;5052143;28;20105;-74
2023/01/31 12:57:20;;;;;;;8.43;2.38;;;;;;;;;;5051664;28;20059;-74
2023/01/31 12:59:51;;;;;;;7.32;2.15;;;;;;;;;;5052043;28;20055;-73
2023/01/31 13:02:24;;;;;;;9.50;2.45;;;;;;;;;;5051954;28;20032;-73
2023/01/31 13:04:53;;;;;;;6.13;2.10;;;;;;;;;;5051348;28;20031;-74
2023/01/31 13:07:39;;;;;;;10.18;2.67;;;;;;;;;;5050725;28;20017;-74
2023/01/31 13:10:16;;;;;;;10.93;2.38;;;;;;;;;;5049931;28;20024;-72
2023/01/31 13:12:42;;;;;;;8.68;2.10;;;;;;;;;;5051176;28;20026;-74
2023/01/31 13:15:27;;;;;;;8.13;1.90;;;;;;;;;;5051368;28;20032;-76
2023/01/31 13:17:56;;;;;;;14.48;2.78;;;;;;;;;;5051837;28;20025;-78
2023/01/31 13:20:28;;;;;;;17.77;2.70;;;;;;;;;;5052073;28;20398;-75
2023/01/31 13:23:02;;;;;;;18.25;3.30;;;;;;;;;;5052158;28;20108;-75
2023/01/31 13:25:28;;;;;;;13.40;3.38;;;;;;;;;;5054619;28;20470;-74
2023/01/31 13:28:03;;;;;;;20.48;3.65;;;;;;;;;;5055434;28;20163;-75
2023/01/31 13:30:50;;;;;;;22.58;3.72;;;10.50;56.30;;;;;;5050191;28;20029;-75
2023/01/31 13:33:35;;;;;;;19.40;3.35;;;;;;;;;;5051790;28;20079;-75
2023/01/31 13:36:08;;;;;;;35.38;4.95;;;;;;;;;;5054540;28;20451;-75
2023/01/31 13:38:38;;;;;;;23.05;4.07;;;;;;;;;;5047367;28;20025;-74
2023/01/31 13:41:05;;;;;;;20.70;3.45;;;;;;;;;;5055256;28;20124;-75
2023/01/31 13:43:31;;;;;;;19.13;3.63;;;;;;;;;;5054910;28;20103;-75
2023/01/31 13:46:04;;;;;;;28.65;3.92;;;;;;;;;;5054099;28;20109;-75
2023/01/31 13:48:33;;;;;;;19.92;3.97;;;;;;;;;;5054379;28;20021;-74
2023/01/31 13:51:02;;;;;;;25.83;3.85;;;;;;;;;;5051577;28;20025;-74
2023/01/31 13:53:36;;;;;;;24.15;3.78;;;;;;;;;;5054677;28;20029;-75
2023/01/31 13:56:03;;;;;;;26.13;4.18;;;;;;;;;;5054210;28;20029;-75
2023/01/31 13:58:33;;;;;;;33.17;4.43;;;;;;;;;;5054788;28;20072;-73
2023/01/31 14:01:05;;;;;;;30.08;4.35;;;;;;;;;;5052856;28;20031;-73
2023/01/31 14:03:51;;;;;;;23.85;4.40;;;;;;;;;;5046063;28;20091;-74
2023/01/31 14:06:17;;;;;;;22.33;4.28;;;;;;;;;;5053612;28;20488;-74
2023/01/31 14:08:49;;;;;;;32.95;4.75;;;;;;;;;;5054156;28;20048;-74
2023/01/31 14:11:15;;;;;;;27.45;4.22;;;;;;;;;;5054158;28;20029;-74
2023/01/31 14:13:43;;;;;;;36.47;5.10;;;;;;;;;;5054380;28;20028;-75
2023/01/31 14:16:27;;;;;;;34.08;5.35;;;;;;;;;;5052445;28;20029;-74
2023/01/31 14:18:53;;;;;;;30.83;6.15;;;;;;;;;;5053879;28;20033;-74
2023/01/31 14:21:28;;;;;;;31.95;4.85;;;;;;;;;;5054214;28;20447;-71
2023/01/31 14:23:55;;;;;;;32.10;5.10;;;;;;;;;;5053895;28;20143;-72
2023/01/31 14:26:31;;;;;;;35.88;4.72;;;;;;;;;;5045744;28;20087;-71
2023/01/31 14:28:57;;;;;;;30.83;5.25;;;;;;;;;;5053015;28;20044;-73
2023/01/31 14:31:24;;;;;;;36.17;5.75;;;;;;;;;;5053388;28;20025;-72
2023/01/31 14:33:52;;;;;;;38.03;6.57;;;;;;;;;;5054186;28;20028;-72
2023/01/31 14:36:19;;;;;;;41.22;5.78;;;;;;;;;;5053156;28;20067;-73
2023/01/31 14:38:51;;;;;;;39.45;7.32;;;;;;;;;;5047518;28;20071;-73
2023/01/31 14:41:17;;;;;;;43.35;6.07;;;;;;;;;;5053835;28;20040;-73
2023/01/31 14:43:45;;;;;;;39.65;7.10;;;;;;;;;;5052210;28;20028;-73
2023/01/31 14:46:11;;;;;;;38.45;6.28;;;;;;;;;;5052765;28;20025;-73
2023/01/31 14:48:46;;;;;;;52.65;7.45;;;;;;;;;;5053415;28;20079;-74